Date,TemperatureHighF,TemperatureAvgF,TemperatureLowF,DewpointHighF,DewpointAvgF,DewpointLowF,HumidityHigh,HumidityAvg,HumidityLow,PressureMaxIn,PressureMinIn,WindSpeedMaxMPH,WindSpeedAvgMPH,GustSpeedMaxMPH,PrecipitationSumIn
2013-7-1,81.8,75.3,69.6,72.6,70.6,65.4,97,86,67,29.89,29.75,7,0,7,0.88
2013-7-2,89.0,76.6,68.7,72.8,69.9,67.4,100,81,55,30.04,29.88,7,0,7,0.00
2013-7-3,73.2,70.4,67.3,72.3,68.8,66.5,98,95,85,30.15,30.02,7,0,7,2.11
2013-7-4,74.5,70.5,68.7,73.0,69.5,67.8,98,97,94,30.16,30.05,7,0,7,0.59
2013-7-5,84.5,72.2,69.1,74.7,70.2,68.2,98,94,69,30.18,30.09,16,0,16,0.72
2013-7-6,83.0,73.8,68.6,78.1,71.6,68.0,99,93,76,30.14,30.05,6,0,6,0.71
2013-7-7,79.8,73.9,70.5,75.4,72.2,70.2,99,94,82,30.15,30.08,4,0,4,0.12
2013-7-8,92.5,79.5,71.8,76.5,72.9,70.4,99,82,52,30.17,30.05,6,0,6,0.00
2013-7-9,92.8,79.4,70.6,77.8,73.7,69.7,97,84,56,30.15,30.01,4,0,4,0.00
2013-7-10,76.0,74.9,74.3,73.9,73.5,73.2,97,95,93,30.07,30.03,1,0,1,0.00
2013-7-12,73.4,73.4,73.4,72.5,72.5,72.5,97,97,97,29.96,29.93,0,0,0,0.00
2013-7-13,78.8,73.4,70.2,72.5,70.8,68.1,97,92,78,30.04,29.95,12,1,12,0.03
2013-7-14,84.3,74.8,70.3,75.2,71.8,69.1,97,91,73,30.18,30.02,14,1,14,0.28
2013-7-15,85.5,75.7,69.9,74.8,71.5,69.0,97,87,66,30.26,30.15,14,1,14,0.07
2013-7-16,90.9,77.9,69.0,75.3,70.5,67.6,97,80,52,30.29,30.20,9,0,9,0.00
2013-7-17,95.8,77.3,67.6,79.6,70.9,66.4,99,83,52,30.25,30.09,16,0,16,0.51
2013-7-18,93.0,78.9,67.8,77.1,71.5,66.2,100,80,52,30.19,30.01,9,0,9,0.03
2013-7-19,95.3,80.6,71.6,77.0,73.2,70.4,99,80,50,30.09,29.94,4,0,4,0.00
2013-7-20,91.3,75.7,70.3,76.9,71.5,68.3,98,88,56,30.00,29.91,7,0,7,0.55
2013-7-21,91.3,75.9,70.2,76.9,72.1,69.5,99,90,56,30.02,29.89,7,0,7,0.20
2013-7-22,87.5,76.1,70.5,78.4,72.5,69.3,99,89,69,30.00,29.84,7,0,7,0.05
2013-7-23,83.6,75.7,71.4,74.2,71.0,68.8,96,86,67,29.95,29.81,5,0,5,0.00
2013-7-24,86.7,76.4,70.1,76.2,71.8,68.0,97,86,70,29.87,29.77,9,0,9,0.00
2013-7-25,94.3,78.5,69.4,75.0,70.1,68.0,99,78,47,29.96,29.81,5,0,5,0.00
2013-7-26,90.0,75.8,66.7,76.2,70.7,65.5,98,85,60,30.03,29.93,8,0,8,0.00
2013-7-27,72.4,71.9,71.0,69.9,69.6,68.8,93,92,92,29.97,29.96,1,0,1,0.00
2013-7-30,75.5,75.0,74.6,68.9,68.3,67.7,81,80,79,30.11,30.10,0,0,0,0.00
2013-7-31,80.4,73.6,70.6,74.7,70.6,67.7,98,91,81,30.11,29.94,6,0,6,0.45